createdAt,value
2022-10-22T00:00:43.855Z,62.03
2022-10-22T00:03:46.305Z,62.47
2022-10-22T00:06:48.506Z,63.53
2022-10-22T00:09:51.058Z,63.01
2022-10-22T00:12:53.242Z,62.44
2022-10-22T00:15:55.630Z,63.05
2022-10-22T00:18:57.755Z,63.89
2022-10-22T00:22:00.187Z,63.02
2022-10-22T00:25:02.247Z,62.71
2022-10-22T00:28:04.884Z,63.31
2022-10-22T00:31:07.195Z,62.62
2022-10-22T00:34:09.575Z,62.96
2022-10-22T00:37:11.679Z,62.77
2022-10-22T00:40:14.201Z,62.61
2022-10-22T00:43:18.841Z,63.34
2022-10-22T00:46:21.415Z,64.10
2022-10-22T00:49:23.578Z,63.33
2022-10-22T00:52:26.163Z,62.53
2022-10-22T00:55:29.657Z,62.13
2022-10-22T00:58:36.049Z,63.62
2022-10-22T01:01:38.143Z,64.64
2022-10-22T01:04:40.941Z,64.35
2022-10-22T01:07:47.879Z,65.51
2022-10-22T01:11:35.238Z,65.28
2022-10-22T01:14:58.261Z,64.67
2022-10-22T01:18:18.171Z,65.18
2022-10-22T01:21:43.893Z,62.87
2022-10-22T01:24:55.368Z,65.02
2022-10-22T01:28:06.080Z,64.23
2022-10-22T01:31:10.807Z,63.67
2022-10-22T01:34:17.015Z,64.81
2022-10-22T01:37:22.979Z,65.70
2022-10-22T01:40:27.025Z,66.09
2022-10-22T01:43:29.478Z,66.12
2022-10-22T01:46:32.432Z,66.74
2022-10-22T01:49:49.914Z,66.98
2022-10-22T01:53:02.855Z,67.25
2022-10-22T01:56:36.392Z,67.32
2022-10-22T01:59:53.600Z,67.66
2022-10-22T02:03:18.714Z,68.46
2022-10-22T02:06:26.083Z,67.63
2022-10-22T02:09:30.995Z,68.10
2022-10-22T02:12:35.040Z,68.23
2022-10-22T02:15:39.867Z,68.52
2022-10-22T02:18:46.623Z,69.41
2022-10-22T02:21:49.501Z,69.00
2022-10-22T02:24:52.031Z,69.38
2022-10-22T02:28:11.214Z,69.58
2022-10-22T02:31:23.819Z,69.72
2022-10-22T02:34:30.044Z,70.41
2022-10-22T02:37:32.708Z,70.58
2022-10-22T02:40:35.236Z,70.36
2022-10-22T02:43:48.617Z,69.90
2022-10-22T02:46:51.093Z,70.95
2022-10-22T02:49:53.474Z,71.27
2022-10-22T02:52:55.579Z,71.08
2022-10-22T02:55:58.590Z,71.52
2022-10-22T02:59:03.035Z,72.27
2022-10-22T03:02:05.414Z,72.40
2022-10-22T03:05:08.114Z,73.66
2022-10-22T03:08:10.505Z,73.75
2022-10-22T03:11:12.619Z,73.96
2022-10-22T03:14:15.042Z,74.72
2022-10-22T03:17:17.200Z,74.80
2022-10-22T03:20:19.608Z,75.60
2022-10-22T03:23:21.700Z,75.54
2022-10-22T03:26:25.175Z,75.90
2022-10-22T03:29:28.237Z,76.90
2022-10-22T03:32:30.648Z,76.27
2022-10-22T03:35:38.321Z,75.96
2022-10-22T03:38:41.236Z,76.84
2022-10-22T03:41:44.376Z,78.59
2022-10-22T03:44:47.098Z,78.74
2022-10-22T03:47:49.174Z,78.58
2022-10-22T03:50:51.579Z,78.76
2022-10-22T03:53:54.179Z,78.13
2022-10-22T03:56:56.583Z,79.08
2022-10-22T03:59:58.669Z,78.50
2022-10-22T04:03:01.024Z,78.45
2022-10-22T04:06:06.191Z,78.55
2022-10-22T04:09:08.466Z,78.42
2022-10-22T04:12:10.968Z,78.25
2022-10-22T04:15:13.070Z,78.44
2022-10-22T04:18:15.468Z,79.18
2022-10-22T04:21:19.448Z,79.69
2022-10-22T04:24:21.815Z,79.61
2022-10-22T04:27:23.951Z,78.89
2022-10-22T04:30:27.057Z,78.68
2022-10-22T04:33:29.175Z,78.79
2022-10-22T04:36:31.593Z,78.87
2022-10-22T04:39:33.698Z,78.67
2022-10-22T04:42:36.078Z,78.78
2022-10-22T04:45:38.194Z,79.43
2022-10-22T04:48:42.193Z,80.12
2022-10-22T04:51:44.279Z,79.49
2022-10-22T04:54:46.927Z,80.04
2022-10-22T04:57:49.078Z,79.62
2022-10-22T05:00:51.528Z,79.63
2022-10-22T05:03:55.854Z,79.08
2022-10-22T05:06:58.287Z,78.73
2022-10-22T05:10:02.297Z,79.66
2022-10-22T05:13:04.703Z,79.09
2022-10-22T05:16:07.003Z,78.62
2022-10-22T05:19:17.320Z,78.63
2022-10-22T05:22:19.465Z,79.27
2022-10-22T05:25:21.850Z,80.05
2022-10-22T05:28:24.023Z,79.35
2022-10-22T05:31:28.738Z,79.30
2022-10-22T05:34:30.841Z,78.36
2022-10-22T05:37:33.242Z,77.77
2022-10-22T05:40:35.342Z,78.00
2022-10-22T05:43:38.164Z,77.49
2022-10-22T05:46:40.772Z,77.34
2022-10-22T05:49:43.169Z,76.99
2022-10-22T05:52:45.277Z,77.20
2022-10-22T05:55:47.739Z,76.70
2022-10-22T05:58:50.236Z,77.23
2022-10-22T06:01:52.706Z,76.04
2022-10-22T06:04:55.177Z,75.98
2022-10-22T06:07:57.808Z,75.32
2022-10-22T06:11:00.359Z,75.52
2022-10-22T06:14:03.187Z,74.09
2022-10-22T06:17:05.577Z,74.67
2022-10-22T06:20:08.536Z,74.38
2022-10-22T06:23:11.232Z,72.92
2022-10-22T06:26:13.382Z,73.38
2022-10-22T06:29:15.824Z,70.44
2022-10-22T06:32:17.907Z,71.20
2022-10-22T06:35:20.320Z,70.00
2022-10-22T06:38:22.456Z,67.06
2022-10-22T06:41:28.589Z,65.85
2022-10-22T06:44:32.774Z,66.64
2022-10-22T06:47:35.165Z,65.12
2022-10-22T06:50:37.353Z,63.99
2022-10-22T06:53:40.461Z,63.87
2022-10-22T06:56:42.753Z,63.02
2022-10-22T06:59:46.472Z,62.80
2022-10-22T07:02:57.605Z,63.75
2022-10-22T07:06:07.447Z,62.57
2022-10-22T07:09:09.613Z,62.10
2022-10-22T07:12:12.537Z,62.53
2022-10-22T07:15:14.815Z,61.90
2022-10-22T07:18:17.311Z,62.17
2022-10-22T07:21:20.472Z,61.98
2022-10-22T07:24:22.943Z,61.75
2022-10-22T07:27:25.083Z,62.84
2022-10-22T07:30:27.554Z,62.19
2022-10-22T07:33:29.687Z,61.50
2022-10-22T07:36:32.280Z,62.44
2022-10-22T07:39:34.543Z,63.18
2022-10-22T07:42:36.942Z,63.25
2022-10-22T07:45:39.192Z,61.99
2022-10-22T07:48:41.923Z,62.55
2022-10-22T07:51:44.050Z,61.96
2022-10-22T07:54:46.485Z,59.94
2022-10-22T07:57:48.578Z,61.38
2022-10-22T08:00:54.884Z,60.08
2022-10-22T08:03:57.315Z,60.52
2022-10-22T08:07:00.594Z,59.52
2022-10-22T08:10:03.539Z,58.31
2022-10-22T08:13:06.723Z,56.73
2022-10-22T08:16:09.190Z,58.00
2022-10-22T08:19:11.448Z,56.48
2022-10-22T08:22:13.977Z,56.84
2022-10-22T08:25:18.042Z,56.67
2022-10-22T08:28:22.069Z,54.88
2022-10-22T08:31:24.581Z,53.97
2022-10-22T08:34:27.055Z,53.47
2022-10-22T08:37:29.200Z,52.67
2022-10-22T08:40:39.934Z,51.32
2022-10-22T08:44:10.853Z,50.33
2022-10-22T08:47:44.360Z,51.80
2022-10-22T08:50:50.038Z,52.31
2022-10-22T08:54:30.145Z,52.87
2022-10-22T08:58:21.878Z,53.70
2022-10-22T09:01:34.237Z,54.16
2022-10-22T09:05:02.708Z,53.64
2022-10-22T09:08:08.836Z,54.50
2022-10-22T09:11:10.945Z,54.19
2022-10-22T09:14:19.704Z,54.85
2022-10-22T09:17:38.772Z,54.21
2022-10-22T09:20:54.705Z,54.60
2022-10-22T09:24:19.445Z,54.88
2022-10-22T09:27:28.335Z,55.75
2022-10-22T09:30:32.014Z,54.15
2022-10-22T09:33:34.407Z,55.04
2022-10-22T09:36:37.940Z,53.76
2022-10-22T09:39:44.833Z,54.28
2022-10-22T09:42:47.345Z,54.64
2022-10-22T09:45:58.024Z,55.06
2022-10-22T09:49:17.672Z,55.59
2022-10-22T09:52:30.401Z,56.25
2022-10-22T09:55:32.608Z,56.31
2022-10-22T09:58:43.889Z,53.41
2022-10-22T10:01:46.065Z,54.81
2022-10-22T10:04:52.808Z,54.07
2022-10-22T10:07:55.017Z,54.76
2022-10-22T10:11:37.274Z,53.31
2022-10-22T10:15:01.985Z,53.37
2022-10-22T10:18:33.051Z,53.82
2022-10-22T10:21:41.042Z,54.17
2022-10-22T10:24:58.779Z,53.89
2022-10-22T10:28:06.695Z,53.50
2022-10-22T10:31:32.474Z,53.50
2022-10-22T10:34:54.307Z,54.11
2022-10-22T10:38:14.683Z,54.03
2022-10-22T10:41:39.870Z,54.69
2022-10-22T10:45:03.519Z,54.89
2022-10-22T10:48:33.480Z,54.42
2022-10-22T10:51:53.316Z,54.98
2022-10-22T10:55:13.814Z,54.85
2022-10-22T10:58:25.682Z,53.85
2022-10-22T11:01:51.860Z,54.26
2022-10-22T11:05:28.630Z,54.81
2022-10-22T11:08:35.934Z,54.94
2022-10-22T11:11:50.349Z,54.53
2022-10-22T11:15:13.453Z,55.38
2022-10-22T11:18:27.515Z,55.69
2022-10-22T11:21:39.788Z,55.53
2022-10-22T11:24:53.089Z,55.59
2022-10-22T11:28:09.242Z,55.58
2022-10-22T11:31:16.838Z,54.96
2022-10-22T11:34:33.792Z,54.54
2022-10-22T11:37:39.104Z,55.54
2022-10-22T11:40:54.700Z,54.95
2022-10-22T11:43:57.706Z,55.65
2022-10-22T11:47:15.589Z,54.50
2022-10-22T11:50:18.065Z,54.54
2022-10-22T11:53:30.890Z,54.76
2022-10-22T11:56:38.886Z,55.58
2022-10-22T11:59:51.528Z,55.83
2022-10-22T12:03:05.943Z,58.14
2022-10-22T12:06:12.059Z,55.93
2022-10-22T12:09:14.315Z,56.27
2022-10-22T12:12:21.018Z,55.47
2022-10-22T12:15:27.000Z,55.41
2022-10-22T12:18:41.383Z,57.20
2022-10-22T12:21:48.714Z,56.72
2022-10-22T12:24:55.398Z,56.25
2022-10-22T12:28:01.034Z,57.62
2022-10-22T12:31:03.551Z,60.27
2022-10-22T12:34:06.426Z,58.82
2022-10-22T12:37:11.711Z,60.25
2022-10-22T12:40:21.642Z,61.20
2022-10-22T12:43:29.974Z,61.64
2022-10-22T12:46:34.731Z,61.26
2022-10-22T12:49:40.791Z,62.90
2022-10-22T12:52:43.442Z,64.54
2022-10-22T12:55:51.990Z,66.01
2022-10-22T12:59:12.683Z,65.14
2022-10-22T13:02:21.927Z,65.43
2022-10-22T13:05:27.610Z,65.99
2022-10-22T13:08:30.107Z,67.53
2022-10-22T13:11:34.945Z,67.54
2022-10-22T13:14:38.619Z,68.55
2022-10-22T13:17:42.334Z,69.79
2022-10-22T13:21:02.519Z,70.33
2022-10-22T13:24:24.938Z,71.29
2022-10-22T13:27:28.810Z,71.75
2022-10-22T13:30:36.376Z,71.50
2022-10-22T13:33:41.903Z,70.91
2022-10-22T13:36:44.052Z,70.30
2022-10-22T13:39:46.474Z,70.34
2022-10-22T13:42:48.614Z,70.06
2022-10-22T13:46:00.541Z,70.39
2022-10-22T13:49:04.350Z,70.53
2022-10-22T13:52:06.843Z,69.23
2022-10-22T13:55:21.699Z,68.46
2022-10-22T13:58:25.159Z,69.73
2022-10-22T14:01:27.961Z,70.46
2022-10-22T14:04:30.366Z,69.71
2022-10-22T14:07:33.420Z,70.56
2022-10-22T14:10:35.873Z,69.86
2022-10-22T14:13:38.398Z,70.41
2022-10-22T14:16:41.073Z,69.05
2022-10-22T14:19:45.697Z,70.49
2022-10-22T14:22:49.789Z,69.00
2022-10-22T14:25:52.223Z,69.06
2022-10-22T14:29:11.521Z,69.13
2022-10-22T14:32:16.811Z,69.48
2022-10-22T14:35:22.248Z,69.34
2022-10-22T14:38:24.393Z,70.10
2022-10-22T14:41:29.004Z,72.06
2022-10-22T14:44:31.168Z,71.76
2022-10-22T14:47:33.641Z,70.74
2022-10-22T14:50:35.764Z,71.23
2022-10-22T14:53:38.200Z,72.26
2022-10-22T14:56:40.444Z,71.99
2022-10-22T14:59:42.949Z,72.28
2022-10-22T15:02:45.963Z,72.53
2022-10-22T15:05:53.666Z,72.98
2022-10-22T15:08:55.811Z,73.66
2022-10-22T15:11:58.259Z,74.00
2022-10-22T15:15:00.408Z,73.63
2022-10-22T15:18:02.914Z,73.23
2022-10-22T15:21:08.408Z,73.73
2022-10-22T15:24:12.918Z,74.26
2022-10-22T15:27:15.794Z,75.41
2022-10-22T15:30:18.274Z,78.26
2022-10-22T15:33:20.463Z,77.88
2022-10-22T15:36:22.898Z,80.27
2022-10-22T15:39:25.702Z,79.82
2022-10-22T15:42:28.194Z,80.82
2022-10-22T15:45:30.304Z,80.79
2022-10-22T15:48:33.587Z,82.20
2022-10-22T15:51:35.774Z,83.78
2022-10-22T15:54:38.241Z,85.43
2022-10-22T15:57:40.815Z,90.01
2022-10-22T16:00:43.643Z,92.34
2022-10-22T16:03:46.170Z,96.21
2022-10-22T16:06:49.777Z,95.69
2022-10-22T16:09:56.613Z,95.66
2022-10-22T16:12:58.819Z,94.54
2022-10-22T16:16:05.963Z,97.44
2022-10-22T16:19:10.456Z,100.00
2022-10-22T16:22:13.830Z,100.00
2022-10-22T16:25:16.022Z,100.00
2022-10-22T16:28:18.856Z,100.00
2022-10-22T16:31:21.035Z,100.00
2022-10-22T16:34:25.820Z,100.00
2022-10-22T16:37:28.120Z,100.00
2022-10-22T16:40:30.596Z,100.00
2022-10-22T16:43:32.792Z,100.00
2022-10-22T16:46:38.295Z,100.00
2022-10-22T16:49:40.454Z,100.00
2022-10-22T16:52:43.008Z,100.00
2022-10-22T16:55:45.199Z,100.00
2022-10-22T16:58:57.863Z,100.00
2022-10-22T17:02:00.175Z,100.00
2022-10-22T17:05:02.934Z,100.00
2022-10-22T17:08:07.629Z,100.00
2022-10-22T17:11:12.681Z,100.00
2022-10-22T17:14:14.813Z,100.00
2022-10-22T17:17:17.243Z,100.00
2022-10-22T17:20:20.190Z,100.00
2022-10-22T17:23:22.654Z,100.00
2022-10-22T17:26:26.831Z,100.00
2022-10-22T17:29:29.528Z,100.00
2022-10-22T17:32:32.143Z,100.00
2022-10-22T17:35:35.854Z,100.00
2022-10-22T17:38:38.941Z,100.00
2022-10-22T17:41:41.390Z,100.00
2022-10-22T17:44:43.484Z,100.00
2022-10-22T17:47:45.934Z,100.00
2022-10-22T17:50:50.570Z,100.00
2022-10-22T17:53:54.724Z,100.00
2022-10-22T17:56:56.850Z,100.00
2022-10-22T17:59:59.314Z,100.00
2022-10-22T18:03:01.601Z,100.00
2022-10-22T18:06:07.295Z,100.00
2022-10-22T18:09:13.214Z,100.00
2022-10-22T18:12:18.062Z,100.00
2022-10-22T18:15:20.264Z,100.00
2022-10-22T18:18:23.846Z,100.00
2022-10-22T18:21:28.236Z,100.00
2022-10-22T18:24:30.693Z,100.00
2022-10-22T18:27:33.713Z,100.00
2022-10-22T18:30:40.765Z,100.00
2022-10-22T18:33:42.988Z,100.00
2022-10-22T18:36:45.479Z,100.00
2022-10-22T18:39:47.599Z,100.00
2022-10-22T18:42:50.070Z,100.00
2022-10-22T18:45:52.251Z,100.00
2022-10-22T18:48:58.740Z,100.00
2022-10-22T18:52:01.118Z,100.00
2022-10-22T18:55:03.932Z,100.00
2022-10-22T18:58:06.467Z,100.00
2022-10-22T19:01:20.626Z,100.00
2022-10-22T19:04:23.012Z,100.00
2022-10-22T19:07:25.533Z,100.00
2022-10-22T19:10:27.690Z,100.00
2022-10-22T19:13:30.149Z,100.00
2022-10-22T19:16:34.719Z,100.00
2022-10-22T19:19:37.133Z,100.00
2022-10-22T19:22:39.309Z,100.00
2022-10-22T19:25:41.806Z,100.00
2022-10-22T19:28:45.211Z,100.00
2022-10-22T19:31:50.559Z,100.00
2022-10-22T19:34:52.775Z,100.00
2022-10-22T19:37:55.234Z,100.00
2022-10-22T19:40:57.445Z,100.00
2022-10-22T19:44:00.766Z,100.00
2022-10-22T19:47:02.911Z,100.00
2022-10-22T19:50:05.885Z,100.00
2022-10-22T19:53:08.000Z,100.00
2022-10-22T19:56:11.802Z,100.00
2022-10-22T19:59:15.174Z,100.00
2022-10-22T20:02:18.602Z,100.00
2022-10-22T20:05:21.011Z,100.00
2022-10-22T20:08:23.163Z,100.00
2022-10-22T20:11:30.085Z,100.00
2022-10-22T20:14:32.979Z,100.00
2022-10-22T20:17:35.479Z,100.00
2022-10-22T20:20:37.836Z,100.00
2022-10-22T20:23:40.432Z,100.00
2022-10-22T20:26:45.414Z,100.00
2022-10-22T20:29:49.942Z,100.00
2022-10-22T20:32:52.038Z,100.00
2022-10-22T20:36:02.943Z,100.00
2022-10-22T20:39:08.161Z,100.00
2022-10-22T20:42:10.773Z,100.00
2022-10-22T20:45:12.904Z,100.00
2022-10-22T20:48:15.428Z,100.00
2022-10-22T20:51:17.584Z,100.00
2022-10-22T20:54:20.166Z,100.00
2022-10-22T20:57:22.375Z,100.00
2022-10-22T21:00:24.868Z,100.00
2022-10-22T21:03:27.085Z,100.00
2022-10-22T21:06:29.948Z,100.00
2022-10-22T21:09:34.183Z,100.00
2022-10-22T21:12:41.652Z,100.00
2022-10-22T21:15:43.984Z,100.00
2022-10-22T21:18:47.187Z,100.00
2022-10-22T21:21:49.751Z,100.00
2022-10-22T21:24:52.210Z,100.00
2022-10-22T21:27:54.362Z,100.00
2022-10-22T21:30:56.779Z,100.00
2022-10-22T21:33:58.931Z,100.00
2022-10-22T21:37:01.354Z,100.00
2022-10-22T21:40:04.363Z,100.00
2022-10-22T21:43:06.819Z,100.00
2022-10-22T21:46:14.426Z,100.00
2022-10-22T21:49:16.927Z,100.00
2022-10-22T21:52:19.223Z,100.00
2022-10-22T21:55:21.733Z,100.00
2022-10-22T21:58:23.930Z,100.00
2022-10-22T22:01:26.951Z,100.00
2022-10-22T22:04:29.492Z,100.00
2022-10-22T22:07:34.796Z,100.00
2022-10-22T22:10:37.350Z,100.00
2022-10-22T22:13:39.968Z,100.00
2022-10-22T22:16:42.413Z,100.00
2022-10-22T22:19:44.563Z,100.00
2022-10-22T22:22:47.011Z,100.00
2022-10-22T22:25:49.279Z,100.00
2022-10-22T22:28:51.753Z,100.00
2022-10-22T22:31:53.947Z,100.00
2022-10-22T22:34:56.464Z,100.00
2022-10-22T22:37:58.958Z,100.00
2022-10-22T22:41:01.816Z,100.00
2022-10-22T22:44:04.594Z,100.00
2022-10-22T22:47:07.085Z,100.00
2022-10-22T22:50:09.307Z,100.00
2022-10-22T22:53:11.745Z,100.00
2022-10-22T22:56:18.072Z,100.00
2022-10-22T22:59:21.927Z,100.00
2022-10-22T23:02:24.120Z,100.00
2022-10-22T23:05:26.652Z,100.00
2022-10-22T23:08:28.790Z,100.00
2022-10-22T23:11:31.428Z,100.00
2022-10-22T23:14:33.570Z,100.00
2022-10-22T23:20:38.484Z,100.00
2022-10-22T23:23:50.380Z,100.00
2022-10-22T23:26:54.430Z,100.00
2022-10-22T23:29:56.899Z,100.00
2022-10-22T23:32:59.124Z,100.00
2022-10-22T23:36:02.174Z,100.00
2022-10-22T23:39:09.844Z,100.00
2022-10-22T23:42:12.490Z,100.00
2022-10-22T23:45:14.846Z,100.00
2022-10-22T23:48:17.609Z,100.00
2022-10-22T23:51:20.683Z,100.00
2022-10-22T23:54:23.425Z,100.00
2022-10-22T23:57:25.663Z,100.00
